Time;durP1;ratioP1;P1;durP2;ratioP2;P2;SDS_P1;SDS_P2;PMS_P1;PMS_P2;Temp;Humidity;BMP_temperature;BMP_pressure;BME280_temperature;BME280_humidity;BME280_pressure;Samples;Min_cycle;Max_cycle;Signal;HPM_P1;HPM_P2
2023/07/21 00:00:18;;;;;;;9.25;4.63;;;16.20;99.90;;;;;;5049399;28;20146;-67
2023/07/21 00:02:47;;;;;;;8.73;4.88;;;16.20;99.90;;;;;;5033641;28;20140;-67
2023/07/21 00:05:16;;;;;;;6.68;4.25;;;16.20;99.90;;;;;;5033982;28;20041;-68
2023/07/21 00:07:44;;;;;;;8.10;5.30;;;16.10;99.90;;;;;;5032441;28;20056;-67
2023/07/21 00:10:10;;;;;;;9.80;5.13;;;16.10;99.90;;;;;;5033669;28;20139;-67
2023/07/21 00:12:46;;;;;;;9.63;5.03;;;16.10;99.90;;;;;;5032770;28;20368;-67
2023/07/21 00:15:15;;;;;;;11.18;5.07;;;16.10;99.90;;;;;;5033844;28;20056;-67
2023/07/21 00:17:42;;;;;;;8.20;4.68;;;16.00;99.90;;;;;;5033526;28;20049;-69
2023/07/21 00:20:19;;;;;;;10.10;4.75;;;16.00;99.90;;;;;;5033465;28;20154;-66
2023/07/21 00:22:45;;;;;;;8.88;4.45;;;16.00;99.90;;;;;;5048586;28;20136;-67
2023/07/21 00:25:11;;;;;;;12.13;4.88;;;15.90;99.90;;;;;;5033481;28;20103;-66
2023/07/21 00:27:44;;;;;;;7.57;4.25;;;15.90;99.90;;;;;;5032508;28;20418;-67
2023/07/21 00:30:10;;;;;;;6.80;3.95;;;15.90;99.90;;;;;;5033331;28;20120;-66
2023/07/21 00:32:37;;;;;;;6.10;4.03;;;15.80;99.90;;;;;;5032950;28;20545;-68
2023/07/21 00:35:06;;;;;;;10.23;4.18;;;15.80;99.90;;;;;;5032481;28;20049;-68
2023/07/21 00:37:32;;;;;;;7.10;3.97;;;15.70;99.90;;;;;;5048479;28;20045;-67
2023/07/21 00:39:58;;;;;;;7.72;3.80;;;15.70;99.90;;;;;;5032862;28;20042;-67
2023/07/21 00:42:24;;;;;;;9.30;4.75;;;15.70;99.90;;;;;;5033221;28;20047;-67
2023/07/21 00:44:50;;;;;;;7.55;4.35;;;15.60;99.90;;;;;;5032481;28;20490;-69
2023/07/21 00:47:16;;;;;;;7.38;4.40;;;15.60;99.90;;;;;;5032594;28;20046;-68
2023/07/21 00:49:43;;;;;;;6.50;4.07;;;15.50;99.90;;;;;;5031957;28;20491;-67
2023/07/21 00:52:10;;;;;;;7.82;4.40;;;15.50;99.90;;;;;;5032046;28;20479;-66
2023/07/21 00:54:36;;;;;;;8.23;4.40;;;15.50;99.90;;;;;;5032942;28;20383;-66
2023/07/21 00:57:02;;;;;;;6.35;4.13;;;15.40;99.90;;;;;;5031796;28;20041;-66
2023/07/21 00:59:29;;;;;;;8.27;4.22;;;15.40;99.90;;;;;;5031300;28;20399;-67
2023/07/21 01:01:56;;;;;;;7.13;4.50;;;15.40;99.90;;;;;;5032508;28;20052;-65
2023/07/21 01:04:23;;;;;;;7.03;4.13;;;15.40;99.90;;;;;;5032069;28;20614;-68
2023/07/21 01:06:49;;;;;;;8.00;4.40;;;15.40;99.90;;;;;;5032541;28;20398;-70
2023/07/21 01:09:17;;;;;;;10.30;4.53;;;15.30;99.90;;;;;;5032654;28;20128;-66
2023/07/21 01:11:42;;;;;;;6.25;4.20;;;15.30;99.90;;;;;;5031197;28;20054;-66
2023/07/21 01:14:09;;;;;;;8.13;4.40;;;15.30;99.90;;;;;;5032230;28;20064;-66
2023/07/21 01:16:37;;;;;;;8.18;4.57;;;15.30;99.90;;;;;;5031218;28;20050;-66
2023/07/21 01:19:07;;;;;;;6.80;4.45;;;15.30;99.90;;;;;;5030933;28;20143;-69
2023/07/21 01:21:41;;;;;;;9.38;4.65;;;15.20;99.90;;;;;;5031747;28;20130;-67
2023/07/21 01:24:12;;;;;;;7.95;4.28;;;15.20;99.90;;;;;;5032074;28;20132;-67
2023/07/21 01:26:39;;;;;;;6.13;4.07;;;15.20;99.90;;;;;;5032276;28;20056;-67
2023/07/21 01:29:08;;;;;;;6.00;3.90;;;15.20;99.90;;;;;;5032095;28;20052;-67
2023/07/21 01:31:35;;;;;;;8.00;4.32;;;15.20;99.90;;;;;;5031263;28;20127;-67
2023/07/21 01:34:03;;;;;;;8.15;4.30;;;15.10;99.90;;;;;;5030926;28;20041;-67
2023/07/21 01:36:30;;;;;;;7.20;4.25;;;15.10;99.90;;;;;;5031173;28;20057;-67
2023/07/21 01:38:57;;;;;;;8.95;4.65;;;15.10;99.90;;;;;;5031876;28;20048;-67
2023/07/21 01:41:23;;;;;;;7.03;4.40;;;15.10;99.90;;;;;;5032312;28;20411;-67
2023/07/21 01:43:49;;;;;;;7.55;4.32;;;15.10;99.90;;;;;;5030797;28;20052;-66
2023/07/21 01:46:15;;;;;;;6.32;4.55;;;15.10;99.90;;;;;;5031805;28;20053;-67
2023/07/21 01:48:41;;;;;;;8.70;4.65;;;15.10;99.90;;;;;;5032080;28;20495;-67
2023/07/21 01:51:08;;;;;;;9.27;4.65;;;15.10;99.90;;;;;;5031895;28;20045;-67
2023/07/21 01:53:36;;;;;;;8.32;4.18;;;15.10;99.90;;;;;;5032227;28;20054;-66
2023/07/21 01:56:09;;;;;;;8.20;5.10;;;15.00;99.90;;;;;;5030007;28;20497;-68
2023/07/21 01:58:38;;;;;;;7.50;4.85;;;15.00;99.90;;;;;;5032224;28;20043;-67
2023/07/21 02:01:05;;;;;;;7.57;4.45;;;15.00;99.90;;;;;;5030397;28;20132;-67
2023/07/21 02:03:32;;;;;;;7.13;4.53;;;15.00;99.90;;;;;;5032171;28;20060;-66
2023/07/21 02:05:58;;;;;;;9.35;4.63;;;15.00;99.90;;;;;;5031646;28;20045;-70
2023/07/21 02:08:23;;;;;;;7.43;4.82;;;14.90;99.90;;;;;;5034461;28;20048;-67
2023/07/21 02:10:49;;;;;;;6.55;4.40;;;14.90;99.90;;;;;;5035957;28;20438;-67
2023/07/21 02:13:15;;;;;;;7.47;4.53;;;14.90;99.90;;;;;;5035616;28;20045;-66
2023/07/21 02:15:41;;;;;;;6.32;4.30;;;14.80;99.90;;;;;;5036256;28;20042;-67
2023/07/21 02:18:07;;;;;;;9.70;4.80;;;14.80;99.90;;;;;;5035270;28;20049;-67
2023/07/21 02:20:32;;;;;;;8.98;4.57;;;14.80;99.90;;;;;;5034587;28;20079;-67
2023/07/21 02:22:59;;;;;;;9.52;4.45;;;14.70;99.90;;;;;;5035839;28;20084;-71
2023/07/21 02:25:25;;;;;;;7.68;4.80;;;14.70;99.90;;;;;;5036018;28;20052;-67
2023/07/21 02:27:51;;;;;;;6.97;4.03;;;14.70;99.90;;;;;;5035343;28;20045;-67
2023/07/21 02:30:17;;;;;;;5.78;4.03;;;14.70;99.90;;;;;;5035422;28;20064;-67
2023/07/21 02:32:43;;;;;;;7.28;4.80;;;14.70;99.90;;;;;;5017973;28;20053;-67
2023/07/21 02:35:09;;;;;;;9.40;4.45;;;14.80;99.90;;;;;;5035282;28;20061;-67
2023/07/21 02:37:36;;;;;;;7.60;4.35;;;14.60;99.90;;;;;;5035634;28;20046;-67
2023/07/21 02:40:04;;;;;;;9.50;4.65;;;14.60;99.90;;;;;;5033969;28;20068;-70
2023/07/21 02:42:30;;;;;;;7.32;4.65;;;14.50;99.90;;;;;;5035598;28;20053;-67
2023/07/21 02:44:56;;;;;;;6.95;4.13;;;14.50;99.90;;;;;;5035176;28;20406;-67
2023/07/21 02:47:22;;;;;;;6.57;4.25;;;14.50;99.90;;;;;;5033691;28;20064;-67
2023/07/21 02:49:48;;;;;;;7.65;4.45;;;14.50;99.90;;;;;;5033812;28;20033;-69
2023/07/21 02:52:14;;;;;;;8.00;4.30;;;14.50;99.90;;;;;;5034913;28;20046;-67
2023/07/21 02:54:40;;;;;;;7.65;4.30;;;14.50;99.90;;;;;;5035286;28;20387;-67
2023/07/21 02:57:07;;;;;;;9.38;4.53;;;14.50;99.90;;;;;;5033843;28;20103;-70
2023/07/21 02:59:34;;;;;;;7.22;4.13;;;14.50;99.90;;;;;;5034939;28;20128;-67
2023/07/21 03:02:00;;;;;;;8.43;4.80;;;14.50;99.90;;;;;;5035218;28;20053;-67
2023/07/21 03:04:26;;;;;;;8.38;4.63;;;14.50;99.90;;;;;;5034673;28;20049;-67
2023/07/21 03:06:52;;;;;;;7.40;4.75;;;14.40;99.90;;;;;;5035173;28;20049;-67
2023/07/21 03:09:18;;;;;;;8.13;4.75;;;14.40;99.90;;;;;;5033384;28;20107;-67
2023/07/21 03:11:44;;;;;;;10.85;4.97;;;14.30;99.90;;;;;;5034939;28;20085;-67
2023/07/21 03:14:10;;;;;;;7.18;4.72;;;14.30;99.90;;;;;;5034706;28;20084;-68
2023/07/21 03:16:36;;;;;;;7.18;4.50;;;14.30;99.90;;;;;;5034855;28;20462;-67
2023/07/21 03:19:02;;;;;;;9.43;4.95;;;14.30;99.90;;;;;;5034218;28;20058;-67
2023/07/21 03:21:28;;;;;;;7.25;4.88;;;14.30;99.90;;;;;;5034248;28;20094;-67
2023/07/21 03:23:53;;;;;;;6.60;4.25;;;14.30;99.90;;;;;;5034793;28;20050;-66
2023/07/21 03:26:20;;;;;;;7.93;4.93;;;14.30;99.90;;;;;;5034315;28;20046;-67
2023/07/21 03:28:46;;;;;;;10.52;4.70;;;14.20;99.90;;;;;;5033576;28;20056;-67
2023/07/21 03:31:12;;;;;;;7.75;4.70;;;14.20;99.90;;;;;;5016637;28;20152;-68
2023/07/21 03:33:37;;;;;;;7.15;4.00;;;14.20;99.90;;;;;;5034771;28;20050;-66
2023/07/21 03:36:04;;;;;;;7.75;4.00;;;14.20;99.90;;;;;;5034321;28;20495;-67
2023/07/21 03:38:37;;;;;;;7.22;4.75;;;14.10;99.90;;;;;;5034001;28;20046;-67
2023/07/21 03:41:05;;;;;;;7.85;4.40;;;14.20;99.90;;;;;;5034158;28;20053;-67
2023/07/21 03:43:31;;;;;;;6.72;4.38;;;14.10;99.90;;;;;;5032857;28;20497;-67
2023/07/21 03:45:58;;;;;;;7.82;4.47;;;14.10;99.90;;;;;;5033433;28;20049;-67
2023/07/21 03:48:25;;;;;;;7.22;4.38;;;14.10;99.90;;;;;;5033697;28;20107;-67
2023/07/21 03:51:03;;;;;;;7.05;3.97;;;14.10;99.90;;;;;;5034300;28;20050;-66
2023/07/21 03:53:29;;;;;;;10.10;4.55;;;14.10;99.90;;;;;;5033698;28;20119;-67
2023/07/21 03:55:55;;;;;;;7.70;4.15;;;14.20;99.90;;;;;;5034189;28;20072;-67
2023/07/21 03:58:22;;;;;;;7.40;4.22;;;14.10;99.90;;;;;;5033579;28;20045;-67
2023/07/21 04:00:48;;;;;;;8.45;4.50;;;14.20;99.90;;;;;;5033782;28;20132;-67
2023/07/21 04:03:14;;;;;;;6.53;3.78;;;14.10;99.90;;;;;;5033793;28;20080;-71
2023/07/21 04:05:40;;;;;;;8.27;3.75;;;14.20;99.90;;;;;;5033812;28;20049;-66
2023/07/21 04:08:07;;;;;;;5.05;4.00;;;14.10;99.90;;;;;;5033551;28;20506;-67
2023/07/21 04:10:33;;;;;;;10.00;3.97;;;14.10;99.90;;;;;;5048862;28;20056;-68
2023/07/21 04:12:59;;;;;;;5.90;3.83;;;14.10;99.90;;;;;;5033540;28;20056;-68
2023/07/21 04:15:26;;;;;;;6.75;3.88;;;14.20;99.90;;;;;;5032307;28;20049;-68
2023/07/21 04:17:54;;;;;;;7.40;4.43;;;14.20;99.90;;;;;;5033635;28;20102;-68
2023/07/21 04:20:23;;;;;;;6.45;4.07;;;14.20;99.90;;;;;;5032713;28;20053;-68
2023/07/21 04:22:50;;;;;;;6.60;3.80;;;14.20;99.90;;;;;;5032472;28;20067;-68
2023/07/21 04:25:17;;;;;;;7.57;4.00;;;14.30;99.90;;;;;;5033404;28;20049;-70
2023/07/21 04:27:47;;;;;;;7.13;3.92;;;14.30;99.90;;;;;;5032373;28;20080;-68
2023/07/21 04:30:13;;;;;;;6.38;4.00;;;14.30;99.90;;;;;;5032398;28;20049;-68
2023/07/21 04:32:39;;;;;;;6.32;4.10;;;14.30;99.90;;;;;;5032327;28;20056;-66
2023/07/21 04:35:10;;;;;;;6.90;4.13;;;14.40;99.90;;;;;;5033604;28;20394;-67
2023/07/21 04:37:37;;;;;;;6.50;4.03;;;14.40;99.90;;;;;;5033141;28;20479;-66
2023/07/21 04:40:06;;;;;;;5.68;3.80;;;14.40;99.90;;;;;;5031669;28;20180;-67
2023/07/21 04:42:32;;;;;;;7.65;3.80;;;14.50;99.90;;;;;;5032816;28;20056;-68
2023/07/21 04:44:59;;;;;;;7.80;3.70;;;14.60;99.90;;;;;;5033541;28;20056;-67
2023/07/21 04:47:24;;;;;;;7.32;3.60;;;14.70;99.90;;;;;;5032793;28;20049;-68
2023/07/21 04:49:52;;;;;;;7.32;3.50;;;14.80;99.90;;;;;;5031988;28;20352;-67
2023/07/21 04:52:18;;;;;;;6.10;3.50;;;14.90;99.90;;;;;;5032808;28;20045;-68
2023/07/21 04:54:44;;;;;;;7.18;3.30;;;15.10;99.90;;;;;;5032423;28;20049;-68
2023/07/21 04:57:10;;;;;;;8.73;3.25;;;15.30;99.90;;;;;;5031798;28;20462;-68
2023/07/21 04:59:36;;;;;;;4.82;2.90;;;15.40;99.90;;;;;;5031188;28;20128;-68
2023/07/21 05:02:02;;;;;;;6.05;3.00;;;15.50;99.90;;;;;;5031677;28;20487;-68
2023/07/21 05:04:28;;;;;;;5.65;3.03;;;15.70;99.90;;;;;;5032183;28;20120;-68
2023/07/21 05:06:53;;;;;;;6.45;3.38;;;15.70;99.90;;;;;;5031352;28;20049;-68
2023/07/21 05:09:19;;;;;;;6.47;3.05;;;16.20;99.90;;;;;;5032217;28;20453;-68
2023/07/21 05:11:46;;;;;;;5.78;3.25;;;16.90;99.90;;;;;;5032304;28;20085;-68
2023/07/21 05:14:13;;;;;;;5.72;2.80;;;17.60;99.90;;;;;;5031476;28;20076;-67
2023/07/21 05:16:39;;;;;;;6.40;2.72;;;18.30;99.90;;;;;;5031863;28;20053;-67
2023/07/21 05:19:05;;;;;;;4.88;2.75;;;18.80;99.90;;;;;;5032130;28;20049;-67
2023/07/21 05:21:31;;;;;;;5.68;2.78;;;19.00;99.90;;;;;;5031826;28;20053;-67
2023/07/21 05:23:57;;;;;;;5.43;2.78;;;18.80;99.90;;;;;;5032665;28;20053;-68
2023/07/21 05:26:22;;;;;;;6.80;2.70;;;18.50;99.90;;;;;;5032394;28;20053;-68
2023/07/21 05:28:54;;;;;;;6.05;2.28;;;18.20;99.90;;;;;;5031666;28;20049;-68
2023/07/21 05:31:20;;;;;;;5.55;2.60;;;18.00;99.90;;;;;;5014720;28;20125;-68
2023/07/21 05:33:46;;;;;;;4.78;2.60;;;17.80;99.90;;;;;;5031927;28;20671;-67
2023/07/21 05:36:12;;;;;;;4.57;3.08;;;17.80;99.90;;;;;;5031176;28;20045;-68
2023/07/21 05:38:38;;;;;;;6.28;2.67;;;17.80;99.90;;;;;;5031641;28;20057;-68
2023/07/21 05:41:05;;;;;;;5.90;3.10;;;18.40;99.90;;;;;;5032138;28;20046;-68
2023/07/21 05:43:31;;;;;;;7.00;2.72;;;19.20;99.90;;;;;;5031556;28;20084;-68
2023/07/21 05:45:56;;;;;;;6.93;2.60;;;19.40;99.90;;;;;;5032120;28;20099;-67
2023/07/21 05:48:24;;;;;;;10.35;2.67;;;19.30;99.90;;;;;;5014407;28;20049;-67
2023/07/21 05:50:51;;;;;;;7.03;2.50;;;19.40;99.90;;;;;;5030556;28;20111;-67
2023/07/21 05:53:17;;;;;;;7.00;2.30;;;19.60;99.90;;;;;;5032229;28;20119;-67
2023/07/21 05:55:43;;;;;;;5.13;2.67;;;19.70;99.90;;;;;;5031565;28;20037;-67
2023/07/21 05:58:09;;;;;;;12.60;2.83;;;20.00;99.90;;;;;;5030464;28;20141;-67
2023/07/21 06:00:39;;;;;;;5.88;2.53;;;20.00;99.90;;;;;;5031515;28;20049;-68
2023/07/21 06:03:05;;;;;;;7.60;2.70;;;20.20;99.90;;;;;;5031955;28;20130;-66
2023/07/21 06:05:32;;;;;;;5.07;2.40;;;20.80;99.90;;;;;;5031587;28;20103;-70
2023/07/21 06:07:58;;;;;;;7.78;2.83;;;21.60;99.90;;;;;;5031618;28;20072;-67
2023/07/21 06:10:24;;;;;;;5.13;2.25;;;22.00;99.80;;;;;;5031518;28;20475;-67
2023/07/21 06:12:50;;;;;;;7.28;2.50;;;22.00;99.30;;;;;;5031238;28;20068;-67
2023/07/21 06:15:16;;;;;;;4.25;2.40;;;22.10;99.20;;;;;;5030587;28;20041;-66
2023/07/21 06:17:41;;;;;;;5.35;2.45;;;22.10;99.10;;;;;;5031500;28;20064;-68
2023/07/21 06:20:10;;;;;;;5.15;2.47;;;22.00;98.90;;;;;;5031118;28;20046;-67
2023/07/21 06:22:37;;;;;;;4.85;2.50;;;22.20;98.60;;;;;;5031164;28;20054;-68
2023/07/21 06:25:04;;;;;;;5.35;2.40;;;22.60;98.50;;;;;;5031578;28;20055;-68
2023/07/21 06:27:30;;;;;;;5.68;2.05;;;23.10;97.70;;;;;;5030621;28;20046;-68
2023/07/21 06:29:56;;;;;;;3.78;2.03;;;23.70;96.60;;;;;;5031409;28;20045;-67
2023/07/21 06:32:23;;;;;;;3.95;1.83;;;24.20;95.80;;;;;;5031390;28;20059;-67
2023/07/21 06:34:49;;;;;;;5.20;2.03;;;24.60;95.60;;;;;;5029896;28;20137;-66
2023/07/21 06:37:15;;;;;;;3.72;1.60;;;24.80;95.00;;;;;;5030296;28;20479;-66
2023/07/21 06:39:41;;;;;;;5.68;1.80;;;25.00;93.40;;;;;;5031070;28;20037;-67
2023/07/21 06:42:10;;;;;;;4.05;1.75;;;25.20;93.60;;;;;;5031173;28;20129;-68
2023/07/21 06:44:36;;;;;;;5.30;1.70;;;25.50;93.70;;;;;;5031019;28;20431;-71
2023/07/21 06:47:02;;;;;;;4.00;1.80;;;25.80;93.60;;;;;;5031728;28;20095;-68
2023/07/21 06:49:27;;;;;;;4.35;1.63;;;26.10;93.30;;;;;;5031593;28;20034;-68
2023/07/21 06:51:53;;;;;;;2.88;1.35;;;26.30;92.80;;;;;;5030787;28;20042;-67
2023/07/21 06:54:19;;;;;;;2.30;1.42;;;26.60;92.70;;;;;;5034086;28;20052;-69
2023/07/21 06:56:44;;;;;;;3.40;1.67;;;26.70;92.30;;;;;;5033765;28;20484;-68
2023/07/21 06:59:10;;;;;;;3.72;1.40;;;27.10;92.30;;;;;;5034996;28;20124;-68
2023/07/21 07:01:36;;;;;;;3.78;1.50;;;27.20;91.30;;;;;;5033616;28;20045;-68
2023/07/21 07:04:02;;;;;;;5.43;1.40;;;27.40;91.90;;;;;;5034540;28;20144;-68
2023/07/21 07:06:28;;;;;;;3.83;1.30;;;27.80;91.90;;;;;;5034737;28;20049;-68
2023/07/21 07:08:55;;;;;;;2.33;1.33;;;27.50;91.30;;;;;;5034471;28;20084;-68
2023/07/21 07:11:21;;;;;;;3.58;1.55;;;27.20;91.70;;;;;;5035167;28;20055;-67
2023/07/21 07:13:48;;;;;;;3.08;1.83;;;27.30;91.60;;;;;;5033125;28;20057;-68
2023/07/21 07:16:13;;;;;;;4.43;1.15;;;27.40;91.70;;;;;;5034778;28;20056;-67
2023/07/21 07:18:39;;;;;;;3.38;1.70;;;27.40;91.60;;;;;;5034477;28;20057;-68
2023/07/21 07:21:05;;;;;;;3.70;1.40;;;27.50;91.40;;;;;;5034323;28;20049;-67
2023/07/21 07:23:30;;;;;;;2.47;1.42;;;27.60;91.20;;;;;;5033358;28;20041;-68
2023/07/21 07:25:56;;;;;;;3.83;1.48;;;27.70;91.10;;;;;;5034571;28;20053;-67
2023/07/21 07:28:22;;;;;;;3.33;1.80;;;27.70;90.90;;;;;;5033519;28;20049;-67
2023/07/21 07:30:48;;;;;;;2.63;1.40;;;27.30;91.10;;;;;;5033060;28;20056;-67
2023/07/21 07:33:15;;;;;;;1.35;1.17;;;27.00;91.40;;;;;;5034398;28;20084;-67
2023/07/21 07:35:51;;;;;;;3.42;1.30;;;26.70;91.30;;;;;;5034222;28;20049;-67
2023/07/21 07:38:19;;;;;;;3.00;1.80;;;26.40;91.30;;;;;;5049360;28;20534;-67
2023/07/21 07:40:47;;;;;;;1.88;1.35;;;25.90;91.50;;;;;;5032913;28;20128;-70
2023/07/21 07:43:13;;;;;;;3.05;1.42;;;25.50;92.10;;;;;;5033973;28;20045;-66
2023/07/21 07:45:39;;;;;;;3.53;1.23;;;25.10;92.60;;;;;;5049244;28;20045;-67
2023/07/21 07:48:07;;;;;;;2.97;1.40;;;25.00;93.00;;;;;;5033851;28;20121;-67
2023/07/21 07:50:40;;;;;;;3.78;1.40;;;25.10;93.00;;;;;;5030290;28;20057;-69
2023/07/21 07:53:06;;;;;;;2.17;1.23;;;24.80;92.90;;;;;;5032059;28;20342;-68
2023/07/21 07:55:38;;;;;;;2.08;1.20;;;24.60;93.60;;;;;;5048160;28;20052;-67
2023/07/21 07:58:04;;;;;;;2.30;1.45;;;24.40;93.40;;;;;;5033114;28;20054;-67
2023/07/21 08:00:30;;;;;;;4.78;1.60;;;24.10;93.80;;;;;;5031779;28;20063;-68
2023/07/21 08:02:55;;;;;;;2.00;1.40;;;23.90;94.10;;;;;;5029333;28;20045;-68
2023/07/21 08:05:21;;;;;;;2.25;1.52;;;23.70;94.10;;;;;;5033548;28;20084;-68
2023/07/21 08:07:48;;;;;;;1.95;1.30;;;23.60;94.10;;;;;;5015313;28;20424;-70
2023/07/21 08:10:14;;;;;;;2.72;1.30;;;23.50;94.40;;;;;;5033618;28;20103;-68
2023/07/21 08:12:40;;;;;;;2.63;1.35;;;23.40;94.40;;;;;;5033829;28;20402;-68
2023/07/21 08:15:06;;;;;;;4.75;1.65;;;23.20;94.30;;;;;;5033059;28;20046;-68
2023/07/21 08:17:37;;;;;;;3.47;1.65;;;23.10;94.50;;;;;;5048342;28;20443;-68
2023/07/21 08:20:03;;;;;;;2.60;1.38;;;23.40;94.90;;;;;;5033217;28;20371;-68
2023/07/21 08:22:29;;;;;;;3.10;1.55;;;23.80;94.20;;;;;;5031884;28;20080;-68
2023/07/21 08:24:54;;;;;;;2.15;1.50;;;24.30;94.20;;;;;;5031325;28;20045;-68
2023/07/21 08:27:20;;;;;;;3.30;1.58;;;24.70;93.90;;;;;;5032943;28;20400;-68
2023/07/21 08:29:46;;;;;;;3.13;1.67;;;25.10;93.50;;;;;;5033012;28;20046;-69
2023/07/21 08:32:12;;;;;;;2.53;1.60;;;25.50;93.10;;;;;;5032858;28;20041;-68
2023/07/21 08:34:38;;;;;;;3.50;1.98;;;26.00;92.40;;;;;;5033407;28;20088;-68
2023/07/21 08:37:04;;;;;;;2.63;1.80;;;26.20;92.40;;;;;;5032565;28;20469;-68
2023/07/21 08:39:30;;;;;;;2.70;1.80;;;26.10;92.20;;;;;;5031789;28;20125;-68
2023/07/21 08:41:57;;;;;;;4.18;1.83;;;26.20;92.20;;;;;;5031122;28;20103;-68
2023/07/21 08:44:23;;;;;;;2.42;1.48;;;26.30;92.10;;;;;;5031930;28;20730;-67
2023/07/21 08:46:50;;;;;;;2.80;1.35;;;26.40;91.80;;;;;;5032667;28;20053;-68
2023/07/21 08:49:19;;;;;;;3.05;1.65;;;26.40;91.30;;;;;;5031909;28;20376;-68
2023/07/21 08:51:45;;;;;;;2.75;1.58;;;26.40;91.10;;;;;;5032121;28;20045;-69
2023/07/21 08:54:12;;;;;;;2.47;1.45;;;26.30;90.80;;;;;;5031659;28;20144;-68
2023/07/21 08:56:38;;;;;;;2.08;1.50;;;26.40;91.10;;;;;;5032072;28;20061;-69
2023/07/21 08:59:03;;;;;;;2.17;1.58;;;26.70;91.10;;;;;;5031240;28;20049;-69
2023/07/21 09:01:29;;;;;;;4.32;1.92;;;26.80;90.90;;;;;;5027074;28;20045;-70
2023/07/21 09:03:55;;;;;;;2.88;1.80;;;26.90;91.00;;;;;;5029327;28;20049;-71
2023/07/21 09:06:20;;;;;;;2.28;1.63;;;27.00;90.90;;;;;;5030214;28;20049;-68
2023/07/21 09:08:49;;;;;;;2.60;1.75;;;27.40;90.80;;;;;;5028964;28;20099;-68
2023/07/21 09:11:16;;;;;;;3.33;1.60;;;28.00;90.70;;;;;;5031834;28;20049;-68
2023/07/21 09:13:51;;;;;;;4.60;1.83;;;28.40;90.20;;;;;;5028778;28;20045;-69
2023/07/21 09:16:19;;;;;;;2.63;1.63;;;28.60;87.90;;;;;;5032435;28;20053;-68
2023/07/21 09:18:47;;;;;;;5.30;1.70;;;28.30;88.50;;;;;;5032416;28;20057;-68
2023/07/21 09:21:23;;;;;;;2.60;1.40;;;27.90;88.30;;;;;;5031812;28;20144;-67
2023/07/21 09:23:50;;;;;;;2.40;1.48;;;27.90;88.30;;;;;;5048120;28;20041;-66
2023/07/21 09:26:21;;;;;;;2.72;1.50;;;27.80;89.20;;;;;;5032005;28;20037;-66
2023/07/21 09:28:47;;;;;;;2.80;1.40;;;27.80;89.50;;;;;;5032310;28;20049;-67
2023/07/21 09:31:13;;;;;;;2.30;1.40;;;27.70;89.80;;;;;;5047324;28;20049;-67
2023/07/21 09:33:44;;;;;;;3.22;1.80;;;27.60;89.60;;;;;;5032109;28;20049;-67
2023/07/21 09:36:12;;;;;;;2.50;1.52;;;27.30;89.90;;;;;;5032036;28;20113;-67
2023/07/21 09:38:39;;;;;;;1.80;1.30;;;26.80;89.70;;;;;;5032129;28;20061;-66
2023/07/21 09:41:15;;;;;;;2.38;1.30;;;26.60;89.40;;;;;;5031661;28;20037;-68
2023/07/21 09:43:42;;;;;;;2.97;1.33;;;26.50;89.50;;;;;;5032119;28;20049;-67
2023/07/21 09:46:09;;;;;;;1.95;1.30;;;26.10;89.80;;;;;;5031667;28;20073;-67
2023/07/21 09:48:36;;;;;;;4.93;1.80;;;25.90;89.80;;;;;;5032184;28;20045;-67
2023/07/21 09:51:09;;;;;;;2.97;1.42;;;25.80;89.50;;;;;;5031895;28;20403;-71
2023/07/21 09:53:38;;;;;;;3.10;2.00;;;25.80;89.70;;;;;;5031970;28;20041;-68
2023/07/21 09:56:05;;;;;;;3.53;1.52;;;25.90;90.00;;;;;;5031671;28;20053;-71
2023/07/21 09:58:34;;;;;;;4.80;1.80;;;25.90;90.30;;;;;;5031667;28;20053;-68
2023/07/21 10:01:03;;;;;;;3.33;1.70;;;25.80;90.30;;;;;;5031014;28;20128;-66
2023/07/21 10:03:31;;;;;;;3.42;1.80;;;25.70;90.10;;;;;;5032040;28;20045;-66
2023/07/21 10:05:59;;;;;;;2.72;1.58;;;25.50;90.30;;;;;;5031929;28;20041;-66
2023/07/21 10:08:31;;;;;;;3.42;1.77;;;25.50;90.80;;;;;;5031529;28;20471;-67
2023/07/21 10:10:58;;;;;;;2.72;1.40;;;25.50;90.70;;;;;;5031915;28;20161;-66
2023/07/21 10:13:28;;;;;;;5.57;1.88;;;25.50;90.50;;;;;;5031810;28;20427;-67
2023/07/21 10:16:05;;;;;;;3.00;1.50;;;25.30;90.60;;;;;;5031848;28;20045;-67
2023/07/21 10:18:31;;;;;;;2.42;1.15;;;25.30;90.10;;;;;;5031559;28;20111;-68
2023/07/21 10:20:57;;;;;;;3.83;1.58;;;25.30;90.40;;;;;;5032096;28;20053;-67
2023/07/21 10:23:31;;;;;;;4.30;1.60;;;25.30;90.20;;;;;;5031400;28;20136;-67
2023/07/21 10:26:08;;;;;;;4.60;1.63;;;25.30;90.00;;;;;;5031822;28;20552;-68
2023/07/21 10:28:43;;;;;;;2.22;1.45;;;25.20;89.70;;;;;;5031887;28;20057;-68
2023/07/21 10:31:21;;;;;;;2.42;1.40;;;25.10;90.00;;;;;;5035114;28;20492;-72
2023/07/21 10:34:03;;;;;;;3.20;1.50;;;25.10;90.10;;;;;;5035776;28;20479;-68
2023/07/21 10:36:47;;;;;;;2.80;1.23;;;25.10;89.50;;;;;;5050615;28;20060;-67
2023/07/21 10:39:16;;;;;;;2.42;1.40;;;24.90;88.70;;;;;;5035253;28;20087;-68
2023/07/21 10:41:42;;;;;;;2.90;1.40;;;24.90;90.00;;;;;;5035655;28;20124;-68
2023/07/21 10:44:12;;;;;;;3.97;1.55;;;24.90;90.10;;;;;;5050921;28;20053;-68
2023/07/21 10:46:39;;;;;;;3.80;1.30;;;24.90;89.50;;;;;;5034750;28;20041;-68
2023/07/21 10:49:06;;;;;;;2.67;1.40;;;24.80;89.30;;;;;;5033908;28;20049;-66
2023/07/21 10:51:32;;;;;;;3.38;1.50;;;24.50;88.80;;;;;;5033933;28;20046;-67
2023/07/21 10:53:57;;;;;;;3.03;1.30;;;24.60;90.10;;;;;;5034397;28;20056;-68
2023/07/21 10:56:23;;;;;;;3.70;1.73;;;24.60;90.10;;;;;;5033572;28;20046;-67
2023/07/21 10:58:49;;;;;;;2.80;1.60;;;24.70;90.20;;;;;;5033675;28;20380;-67
2023/07/21 11:01:19;;;;;;;3.58;1.60;;;24.70;89.80;;;;;;5034519;28;20045;-69
2023/07/21 11:03:48;;;;;;;4.28;2.00;;;24.80;90.20;;;;;;5035135;28;20046;-67
2023/07/21 11:06:14;;;;;;;3.17;1.70;;;24.60;89.60;;;;;;5031345;28;20130;-71
2023/07/21 11:08:40;;;;;;;5.13;1.65;;;24.60;90.00;;;;;;5032794;28;20045;-68
2023/07/21 11:11:08;;;;;;;3.33;1.73;;;24.80;89.80;;;;;;5034464;28;20202;-66
2023/07/21 11:13:34;;;;;;;2.97;1.75;;;24.90;89.80;;;;;;5033569;28;20117;-68
2023/07/21 11:16:00;;;;;;;2.97;1.70;;;25.00;89.20;;;;;;5034738;28;20045;-68
2023/07/21 11:18:28;;;;;;;3.15;1.70;;;25.10;89.40;;;;;;5034219;28;20053;-67
2023/07/21 11:20:55;;;;;;;2.65;1.40;;;25.10;88.90;;;;;;5033874;28;20064;-67
2023/07/21 11:23:21;;;;;;;2.83;1.70;;;25.30;89.40;;;;;;5033039;28;20089;-66
2023/07/21 11:26:11;;;;;;;3.35;1.80;;;25.40;90.10;;;;;;5050021;28;20107;-67
2023/07/21 11:28:42;;;;;;;3.55;1.80;;;25.40;87.30;;;;;;5033295;28;20116;-67
2023/07/21 11:31:13;;;;;;;2.13;1.52;;;25.40;87.20;;;;;;5033501;28;20045;-67
2023/07/21 11:33:49;;;;;;;2.45;1.60;;;25.30;87.70;;;;;;5034117;28;20053;-67
2023/07/21 11:36:18;;;;;;;3.25;1.65;;;25.30;88.50;;;;;;5035252;28;20038;-66
2023/07/21 11:38:58;;;;;;;3.05;1.80;;;25.30;89.30;;;;;;5033752;28;20049;-66
2023/07/21 11:41:53;;;;;;;3.05;1.80;;;25.40;89.30;;;;;;5033569;28;20403;-68
2023/07/21 11:44:27;;;;;;;2.63;1.88;;;25.40;89.50;;;;;;5030519;28;20503;-69
2023/07/21 11:47:04;;;;;;;2.80;2.00;;;25.40;89.90;;;;;;5034553;28;20451;-69
2023/07/21 11:49:32;;;;;;;3.33;1.98;;;25.30;90.30;;;;;;5032557;28;20349;-66
2023/07/21 11:52:04;;;;;;;3.70;2.10;;;25.50;90.70;;;;;;5034391;28;20046;-67
2023/07/21 11:54:43;;;;;;;4.22;2.40;;;25.60;90.30;;;;;;5033551;28;20449;-65
2023/07/21 11:57:10;;;;;;;4.03;2.10;;;25.60;89.80;;;;;;5034137;28;20053;-67
2023/07/21 11:59:36;;;;;;;3.10;1.88;;;25.60;89.20;;;;;;5032349;28;20124;-68
2023/07/21 12:02:04;;;;;;;5.00;2.42;;;25.50;89.70;;;;;;5034155;28;20057;-68
2023/07/21 12:04:32;;;;;;;5.47;2.67;;;25.40;90.20;;;;;;5049027;28;20052;-69
2023/07/21 12:06:57;;;;;;;4.82;2.17;;;25.20;90.50;;;;;;5032385;28;20153;-68
2023/07/21 12:09:23;;;;;;;4.53;2.30;;;24.90;91.10;;;;;;5032448;28;20674;-68
2023/07/21 12:11:49;;;;;;;5.90;2.30;;;24.30;92.40;;;;;;5033768;28;20045;-68
2023/07/21 12:14:15;;;;;;;3.63;2.45;;;23.60;93.20;;;;;;5032857;28;20486;-68
2023/07/21 12:16:41;;;;;;;3.53;2.28;;;23.20;94.10;;;;;;5032841;28;20193;-69
2023/07/21 12:19:07;;;;;;;8.70;2.60;;;22.70;94.70;;;;;;5032917;28;20061;-68
2023/07/21 12:21:34;;;;;;;6.13;2.92;;;22.50;95.40;;;;;;5032798;28;20127;-68
2023/07/21 12:24:00;;;;;;;5.47;2.92;;;22.20;96.00;;;;;;5033190;28;20041;-69
2023/07/21 12:26:25;;;;;;;6.80;3.15;;;21.80;96.60;;;;;;5032550;28;20132;-67
2023/07/21 12:28:51;;;;;;;4.85;2.90;;;21.40;97.00;;;;;;5013893;28;20045;-68
2023/07/21 12:31:17;;;;;;;9.57;3.35;;;21.10;97.90;;;;;;5032992;28;20049;-70
2023/07/21 12:33:44;;;;;;;5.47;3.17;;;21.10;99.90;;;;;;5015231;28;20119;-69
2023/07/21 12:36:14;;;;;;;4.72;3.03;;;20.90;99.90;;;;;;5031878;28;20053;-69
2023/07/21 12:38:41;;;;;;;6.85;3.20;;;20.70;99.90;;;;;;5031046;28;20041;-69
2023/07/21 12:41:07;;;;;;;7.75;3.05;;;20.60;99.90;;;;;;5032345;28;20053;-69
2023/07/21 12:43:32;;;;;;;4.93;3.13;;;20.70;99.90;;;;;;5031011;28;20171;-69
2023/07/21 12:46:00;;;;;;;6.10;3.00;;;20.60;99.90;;;;;;5032981;28;20486;-70